Smithville, Vermont
Current Conditions -  °F | °C
As of 6:54 PM on Wednesday 28 Jan 2015 (Local Time) from KVSF Reporting Station
Clear Clear  
Wind Chill:   Ceiling: Unl
Heat Index: 15°   Visibility: 10mi
Dew Point: -5°   Wind: 5mph
Humidity: 41%   Direction: 290°WNW
Pressure: 30.18"   Gusts: NA
Location:  43.3729°N, 72.7116°W
Report Text: KVSF 282354Z AUTO 29004KT 10SM CLR M09/M21 A3018 RMK AO2 SLP232 T10941206 11056 21094 51034 TSNO
Loading
Personal Weather Stations






























Interactive Weather Map New forecast layout! Learn more

10-Day Weather Forecast

Advertisements
Track Severe Weather on mobile